createdAt,value
2023-03-06T00:00:24.185Z,17.61
2023-03-06T00:01:37.476Z,17.59
2023-03-06T00:02:40.227Z,17.61
2023-03-06T00:03:54.095Z,17.59
2023-03-06T00:05:06.956Z,17.61
2023-03-06T00:06:20.482Z,17.61
2023-03-06T00:07:23.216Z,17.59
2023-03-06T00:08:37.001Z,17.58
2023-03-06T00:09:49.683Z,17.56
2023-03-06T00:10:54.948Z,17.58
2023-03-06T00:12:07.641Z,17.59
2023-03-06T00:13:21.001Z,17.59
2023-03-06T00:14:23.859Z,17.58
2023-03-06T00:15:37.489Z,17.58
2023-03-06T00:16:50.182Z,17.59
2023-03-06T00:17:53.961Z,17.58
2023-03-06T00:19:06.695Z,17.58
2023-03-06T00:20:20.754Z,17.58
2023-03-06T00:21:23.905Z,17.56
2023-03-06T00:22:37.482Z,17.55
2023-03-06T00:23:50.493Z,17.59
2023-03-06T00:25:33.516Z,17.59
2023-03-06T00:26:06.400Z,17.59
2023-03-06T00:27:29.069Z,17.58
2023-03-06T00:28:53.027Z,17.61
2023-03-06T00:29:36.541Z,17.62
2023-03-06T00:30:49.418Z,17.63
2023-03-06T00:31:53.494Z,17.65
2023-03-06T00:33:15.751Z,17.69
2023-03-06T00:34:19.487Z,17.68
2023-03-06T00:35:22.265Z,17.66
2023-03-06T00:36:35.980Z,17.71
2023-03-06T00:37:48.637Z,17.71
2023-03-06T00:39:01.975Z,17.68
2023-03-06T00:40:04.684Z,17.66
2023-03-06T00:41:17.964Z,17.65
2023-03-06T00:42:30.649Z,17.63
2023-03-06T00:43:33.959Z,17.66
2023-03-06T00:44:46.706Z,17.63
2023-03-06T00:46:00.023Z,17.62
2023-03-06T00:47:12.782Z,17.62
2023-03-06T00:48:16.484Z,17.61
2023-03-06T00:49:29.180Z,17.61
2023-03-06T00:50:42.502Z,17.61
2023-03-06T00:51:45.235Z,17.59
2023-03-06T00:52:58.992Z,17.55
2023-03-06T00:54:11.694Z,17.56
2023-03-06T00:55:15.600Z,17.56
2023-03-06T00:56:28.461Z,17.58
2023-03-06T00:57:41.990Z,17.56
2023-03-06T00:58:44.733Z,17.52
2023-03-06T00:59:58.519Z,17.51
2023-03-06T01:01:11.258Z,17.52
2023-03-06T01:02:25.569Z,17.52
2023-03-06T01:03:28.355Z,17.52
2023-03-06T01:04:42.000Z,17.51
2023-03-06T01:05:44.743Z,17.49
2023-03-06T01:06:58.469Z,17.49
2023-03-06T01:08:11.181Z,17.49
2023-03-06T01:09:24.487Z,17.49
2023-03-06T01:10:27.282Z,17.48
2023-03-06T01:11:41.022Z,17.46
2023-03-06T01:12:53.733Z,17.48
2023-03-06T01:13:57.475Z,17.46
2023-03-06T01:15:10.174Z,17.45
2023-03-06T01:16:24.155Z,17.45
2023-03-06T01:17:27.029Z,17.45
2023-03-06T01:18:40.497Z,17.45
2023-03-06T01:19:53.196Z,17.45
2023-03-06T01:20:57.004Z,17.43
2023-03-06T01:22:09.711Z,17.43
2023-03-06T01:23:23.494Z,17.45
2023-03-06T01:24:26.238Z,17.42
2023-03-06T01:25:40.000Z,17.43
2023-03-06T01:26:52.747Z,17.43
2023-03-06T01:28:06.470Z,17.43
2023-03-06T01:29:09.223Z,17.42
2023-03-06T01:30:22.993Z,17.41
2023-03-06T01:31:35.745Z,17.39
2023-03-06T01:32:39.523Z,17.39
2023-03-06T01:33:52.468Z,17.39
2023-03-06T01:35:05.986Z,17.39
2023-03-06T01:36:08.767Z,17.38
2023-03-06T01:37:22.507Z,17.39
2023-03-06T01:38:35.221Z,17.38
2023-03-06T01:39:39.019Z,17.36
2023-03-06T01:40:51.765Z,17.38
2023-03-06T01:42:05.522Z,17.39
2023-03-06T01:43:08.309Z,17.36
2023-03-06T01:44:21.997Z,17.36
2023-03-06T01:45:34.775Z,17.36
2023-03-06T01:46:48.511Z,17.38
2023-03-06T01:47:51.296Z,17.34
2023-03-06T01:49:04.981Z,17.34
2023-03-06T01:50:17.708Z,17.34
2023-03-06T01:51:21.523Z,17.35
2023-03-06T01:52:34.258Z,17.35
2023-03-06T01:53:47.980Z,17.32
2023-03-06T01:54:50.743Z,17.31
2023-03-06T01:56:04.499Z,17.32
2023-03-06T01:57:17.232Z,17.32
2023-03-06T01:58:20.984Z,17.31
2023-03-06T01:59:33.707Z,17.34
2023-03-06T02:00:47.022Z,17.32
2023-03-06T02:01:59.840Z,17.31
2023-03-06T02:03:03.491Z,17.32
2023-03-06T02:04:16.232Z,17.32
2023-03-06T02:05:29.970Z,17.31
2023-03-06T02:06:32.729Z,17.31
2023-03-06T02:07:46.472Z,17.31
2023-03-06T02:08:59.182Z,17.29
2023-03-06T02:10:02.994Z,17.31
2023-03-06T02:11:15.761Z,17.29
2023-03-06T02:12:29.517Z,17.29
2023-03-06T02:13:32.302Z,17.28
2023-03-06T02:14:45.992Z,17.32
2023-03-06T02:15:58.737Z,17.28
2023-03-06T02:17:12.526Z,17.31
2023-03-06T02:18:15.356Z,17.28
2023-03-06T02:19:29.005Z,17.28
2023-03-06T02:20:41.754Z,17.28
2023-03-06T02:21:45.530Z,17.28
2023-03-06T02:23:12.904Z,17.28
2023-03-06T02:24:05.739Z,17.28
2023-03-06T02:25:19.421Z,17.27
2023-03-06T02:26:32.167Z,17.28
2023-03-06T02:27:35.958Z,17.29
2023-03-06T02:28:48.696Z,17.31
2023-03-06T02:30:02.413Z,17.29
2023-03-06T02:31:05.239Z,17.27
2023-03-06T02:32:38.470Z,17.28
2023-03-06T02:33:31.484Z,17.31
2023-03-06T02:34:34.255Z,17.31
2023-03-06T02:35:48.084Z,17.29
2023-03-06T02:37:00.901Z,17.31
2023-03-06T02:38:14.447Z,17.29
2023-03-06T02:39:17.207Z,17.32
2023-03-06T02:40:30.954Z,17.28
2023-03-06T02:41:43.697Z,17.31
2023-03-06T02:42:47.414Z,17.28
2023-03-06T02:44:00.159Z,17.28
2023-03-06T02:45:13.956Z,17.29
2023-03-06T02:46:16.744Z,17.27
2023-03-06T02:47:30.441Z,17.28
2023-03-06T02:48:43.201Z,17.28
2023-03-06T02:49:56.923Z,17.28
2023-03-06T02:50:59.691Z,17.28
2023-03-06T02:52:13.443Z,17.25
2023-03-06T02:53:26.187Z,17.25
2023-03-06T02:54:29.923Z,17.25
2023-03-06T02:55:42.662Z,17.27
2023-03-06T02:56:56.415Z,17.27
2023-03-06T02:57:59.179Z,17.24
2023-03-06T02:59:12.933Z,17.24
2023-03-06T03:00:25.724Z,17.24
2023-03-06T03:01:29.506Z,17.27
2023-03-06T03:02:42.316Z,17.24
2023-03-06T03:03:55.952Z,17.27
2023-03-06T03:04:58.723Z,17.25
2023-03-06T03:06:12.434Z,17.24
2023-03-06T03:07:25.170Z,17.25
2023-03-06T03:08:38.949Z,17.22
2023-03-06T03:09:41.755Z,17.25
2023-03-06T03:10:55.459Z,17.25
2023-03-06T03:12:08.229Z,17.24
2023-03-06T03:13:11.951Z,17.22
2023-03-06T03:14:24.726Z,17.25
2023-03-06T03:15:38.524Z,17.21
2023-03-06T03:16:41.474Z,17.22
2023-03-06T03:17:54.933Z,17.22
2023-03-06T03:19:07.662Z,17.24
2023-03-06T03:20:11.489Z,17.22
2023-03-06T03:21:24.225Z,17.22
2023-03-06T03:22:37.954Z,17.2
2023-03-06T03:23:40.782Z,17.21
2023-03-06T03:24:54.545Z,17.2
2023-03-06T03:26:07.382Z,17.22
2023-03-06T03:27:20.934Z,17.21
2023-03-06T03:28:23.718Z,17.18
2023-03-06T03:29:37.424Z,17.21
2023-03-06T03:30:50.196Z,17.2
2023-03-06T03:31:53.956Z,17.22
2023-03-06T03:33:06.711Z,17.2
2023-03-06T03:34:20.483Z,17.22
2023-03-06T03:35:32.856Z,17.2
2023-03-06T03:36:36.487Z,17.21
2023-03-06T03:37:49.241Z,17.2
2023-03-06T03:39:02.943Z,17.21
2023-03-06T03:40:05.719Z,17.21
2023-03-06T03:41:19.483Z,17.2
2023-03-06T03:42:32.252Z,17.21
2023-03-06T03:43:35.964Z,17.22
2023-03-06T03:44:48.732Z,17.21
2023-03-06T03:46:02.447Z,17.18
2023-03-06T03:47:05.252Z,17.2
2023-03-06T03:48:18.948Z,17.2
2023-03-06T03:49:31.755Z,17.17
2023-03-06T03:50:35.451Z,17.2
2023-03-06T03:51:48.185Z,17.18
2023-03-06T03:53:02.016Z,17.2
2023-03-06T03:54:04.788Z,17.2
2023-03-06T03:55:18.432Z,17.18
2023-03-06T03:56:31.211Z,17.17
2023-03-06T03:57:34.988Z,17.18
2023-03-06T03:58:47.718Z,17.17
2023-03-06T04:00:01.482Z,17.18
2023-03-06T04:01:04.279Z,17.17
2023-03-06T04:02:17.970Z,17.15
2023-03-06T04:03:30.857Z,17.15
2023-03-06T04:04:44.495Z,17.15
2023-03-06T04:05:47.427Z,17.14
2023-03-06T04:07:00.954Z,17.15
2023-03-06T04:08:13.733Z,17.15
2023-03-06T04:09:17.462Z,17.17
2023-03-06T04:10:30.210Z,17.17
2023-03-06T04:11:43.960Z,17.14
2023-03-06T04:12:46.733Z,17.12
2023-03-06T04:14:00.438Z,17.15
2023-03-06T04:15:13.184Z,17.12
2023-03-06T04:16:16.991Z,17.14
2023-03-06T04:17:29.819Z,17.12
2023-03-06T04:18:43.445Z,17.15
2023-03-06T04:19:46.224Z,17.14
2023-03-06T04:20:59.973Z,17.17
2023-03-06T04:22:12.712Z,17.14
2023-03-06T04:23:26.508Z,17.15
2023-03-06T04:24:29.278Z,17.14
2023-03-06T04:25:42.950Z,17.12
2023-03-06T04:26:55.789Z,17.12
2023-03-06T04:27:59.500Z,17.12
2023-03-06T04:29:12.277Z,17.12
2023-03-06T04:30:25.953Z,17.14
2023-03-06T04:31:28.859Z,17.15
2023-03-06T04:32:42.543Z,17.12
2023-03-06T04:33:55.412Z,17.14
2023-03-06T04:34:58.978Z,17.12
2023-03-06T04:36:11.726Z,17.14
2023-03-06T04:37:25.502Z,17.1
2023-03-06T04:38:28.305Z,17.14
2023-03-06T04:39:41.952Z,17.11
2023-03-06T04:40:54.707Z,17.11
2023-03-06T04:42:08.473Z,17.14
2023-03-06T04:43:11.268Z,17.14
2023-03-06T04:44:24.998Z,17.12
2023-03-06T04:45:37.814Z,17.12
2023-03-06T04:46:41.485Z,17.1
2023-03-06T04:47:54.246Z,17.12
2023-03-06T04:49:07.991Z,17.12
2023-03-06T04:50:10.852Z,17.11
2023-03-06T04:51:24.450Z,17.1
2023-03-06T04:52:37.197Z,17.11
2023-03-06T04:53:40.973Z,17.1
2023-03-06T04:54:53.749Z,17.08
2023-03-06T04:56:07.491Z,17.1
2023-03-06T04:57:10.307Z,17.1
2023-03-06T04:58:33.485Z,17.08
2023-03-06T04:59:38.850Z,17.08
2023-03-06T05:00:43.009Z,17.1
2023-03-06T05:01:56.008Z,17.1
2023-03-06T05:03:09.499Z,17.11
2023-03-06T05:04:12.327Z,17.1
2023-03-06T05:05:26.016Z,17.1
2023-03-06T05:06:38.772Z,17.1
2023-03-06T05:07:42.550Z,17.08
2023-03-06T05:08:55.306Z,17.1
2023-03-06T05:10:08.970Z,17.1
2023-03-06T05:11:11.757Z,17.1
2023-03-06T05:12:25.461Z,17.1
2023-03-06T05:13:58.058Z,17.08
2023-03-06T05:15:01.523Z,17.1
2023-03-06T05:16:04.622Z,17.11
2023-03-06T05:17:08.535Z,17.1
2023-03-06T05:18:11.315Z,17.11
2023-03-06T05:19:24.999Z,17.14
2023-03-06T05:20:37.725Z,17.11
2023-03-06T05:21:51.515Z,17.14
2023-03-06T05:22:54.288Z,17.15
2023-03-06T05:24:08.010Z,17.15
2023-03-06T05:25:20.738Z,17.15
2023-03-06T05:26:24.485Z,17.15
2023-03-06T05:27:37.232Z,17.12
2023-03-06T05:28:51.097Z,17.14
2023-03-06T05:29:53.879Z,17.15
2023-03-06T05:31:17.523Z,17.14
2023-03-06T05:32:20.555Z,17.12
2023-03-06T05:33:24.466Z,17.14
2023-03-06T05:34:37.212Z,17.15
2023-03-06T05:35:51.020Z,17.15
2023-03-06T05:36:53.852Z,17.14
2023-03-06T05:38:08.275Z,17.14
2023-03-06T05:39:22.393Z,17.12
2023-03-06T05:40:26.242Z,17.15
2023-03-06T05:42:08.736Z,17.11
2023-03-06T05:43:01.992Z,17.12
2023-03-06T05:43:54.790Z,17.14
2023-03-06T05:45:08.610Z,17.15
2023-03-06T05:46:21.397Z,17.18
2023-03-06T05:47:35.029Z,17.18
2023-03-06T05:48:37.814Z,17.2
2023-03-06T05:49:51.494Z,17.21
2023-03-06T05:50:54.536Z,17.2
2023-03-06T05:52:08.032Z,17.2
2023-03-06T05:53:20.787Z,17.2
2023-03-06T05:54:24.501Z,17.17
2023-03-06T05:55:37.246Z,17.18
2023-03-06T05:56:50.998Z,17.2
2023-03-06T05:57:53.787Z,17.2
2023-03-06T05:59:07.514Z,17.17
2023-03-06T06:00:20.271Z,17.18
2023-03-06T06:01:24.010Z,17.18
2023-03-06T06:02:36.784Z,17.17
2023-03-06T06:03:50.599Z,17.21
2023-03-06T06:04:53.421Z,17.32
2023-03-06T06:06:07.011Z,17.39
2023-03-06T06:07:19.667Z,17.52
2023-03-06T06:08:33.494Z,17.62
2023-03-06T06:09:36.132Z,17.72
2023-03-06T06:10:52.191Z,17.85
2023-03-06T06:11:55.879Z,17.93
2023-03-06T06:13:09.103Z,18.02
2023-03-06T06:14:21.622Z,18.09
2023-03-06T06:15:25.018Z,18.17
2023-03-06T06:16:37.592Z,18.22
2023-03-06T06:17:50.985Z,18.22
2023-03-06T06:18:53.801Z,18.26
2023-03-06T06:20:07.105Z,18.26
2023-03-06T06:21:19.591Z,18.29
2023-03-06T06:22:33.051Z,18.3
2023-03-06T06:23:35.652Z,18.26
2023-03-06T06:24:49.010Z,18.27
2023-03-06T06:26:01.534Z,18.29
2023-03-06T06:27:05.012Z,18.24
2023-03-06T06:28:17.521Z,18.22
2023-03-06T06:29:31.130Z,18.17
2023-03-06T06:30:33.792Z,18.22
2023-03-06T06:31:47.006Z,18.19
2023-03-06T06:32:59.510Z,18.2
2023-03-06T06:34:13.307Z,18.22
2023-03-06T06:38:50.819Z,18.44
2023-03-06T06:39:53.318Z,18.5
2023-03-06T06:41:35.971Z,18.58
2023-03-06T06:43:28.649Z,18.68
2023-03-06T06:44:42.492Z,18.71
2023-03-06T06:45:45.013Z,18.8
2023-03-06T06:47:23.113Z,18.82
2023-03-06T06:48:07.113Z,18.88
2023-03-06T06:49:19.740Z,18.92
2023-03-06T06:50:33.025Z,18.98
2023-03-06T06:51:35.608Z,19.02
2023-03-06T06:52:49.114Z,19.04
2023-03-06T06:54:01.600Z,19.08
2023-03-06T06:55:05.015Z,19.13
2023-03-06T06:56:17.428Z,19.13
2023-03-06T06:57:30.488Z,19.16
2023-03-06T06:58:43.010Z,19.17
2023-03-06T06:59:46.501Z,19.23
2023-03-06T07:00:58.948Z,19.23
2023-03-06T07:02:11.991Z,19.29
2023-03-06T07:03:14.462Z,19.3
2023-03-06T07:04:27.485Z,19.3
2023-03-06T07:05:39.905Z,19.33
2023-03-06T07:06:53.514Z,19.36
2023-03-06T07:07:56.062Z,19.43
2023-03-06T07:09:09.522Z,19.42
2023-03-06T07:10:21.935Z,19.45
2023-03-06T07:11:25.506Z,19.46
2023-03-06T07:12:37.969Z,19.49
2023-03-06T07:13:51.009Z,19.5
2023-03-06T07:14:53.715Z,19.52
2023-03-06T07:16:07.052Z,19.5
2023-03-06T07:17:19.537Z,19.55
2023-03-06T07:18:32.520Z,19.56
2023-03-06T07:19:34.971Z,19.59
2023-03-06T07:20:48.029Z,19.57
2023-03-06T07:22:00.473Z,19.6
2023-03-06T07:23:13.535Z,19.62
2023-03-06T07:24:16.008Z,19.63
2023-03-06T07:25:29.027Z,19.64
2023-03-06T07:26:41.389Z,19.66
2023-03-06T07:27:51.079Z,19.66
2023-03-06T07:28:55.663Z,19.71
2023-03-06T07:30:09.038Z,19.71
2023-03-06T07:31:21.441Z,19.73
2023-03-06T07:32:24.500Z,19.73
2023-03-06T07:33:36.924Z,19.74
2023-03-06T07:34:50.023Z,19.77
2023-03-06T07:36:02.441Z,19.77
2023-03-06T07:37:05.541Z,19.77
2023-03-06T07:38:17.905Z,19.78
2023-03-06T07:39:31.023Z,19.8
2023-03-06T07:40:43.392Z,19.81
2023-03-06T07:41:46.532Z,19.86
2023-03-06T07:43:09.410Z,19.84
2023-03-06T07:44:12.012Z,19.83
2023-03-06T07:45:14.472Z,19.88
2023-03-06T07:46:27.537Z,19.88
2023-03-06T07:47:39.891Z,19.91
2023-03-06T07:48:53.048Z,19.88
2023-03-06T07:50:05.118Z,19.94
2023-03-06T07:51:08.556Z,19.93
2023-03-06T07:52:20.897Z,19.93
2023-03-06T07:53:34.043Z,19.97
2023-03-06T07:54:36.509Z,19.97
2023-03-06T07:55:49.543Z,19.97
2023-03-06T07:57:02.048Z,20.0
2023-03-06T07:58:05.550Z,20.0
2023-03-06T07:59:17.910Z,20.0
2023-03-06T08:00:31.560Z,20.01
2023-03-06T08:01:33.992Z,20.0
2023-03-06T08:02:47.056Z,20.06
2023-03-06T08:03:59.643Z,20.03
2023-03-06T08:05:13.048Z,20.06
2023-03-06T08:06:15.465Z,20.06
2023-03-06T08:07:28.545Z,20.04
2023-03-06T08:08:40.879Z,20.04
2023-03-06T08:09:54.052Z,20.06
2023-03-06T08:10:56.459Z,20.04
2023-03-06T08:12:09.517Z,20.07
2023-03-06T08:13:21.930Z,20.06
2023-03-06T08:14:44.571Z,20.04
2023-03-06T08:15:37.169Z,20.08
2023-03-06T08:16:50.541Z,20.1
2023-03-06T08:17:53.190Z,20.11
2023-03-06T08:19:06.562Z,20.11
2023-03-06T08:20:18.876Z,20.13
2023-03-06T08:21:33.342Z,20.13
2023-03-06T08:22:45.233Z,20.17
2023-03-06T08:23:48.629Z,20.14
2023-03-06T08:25:00.974Z,20.17
2023-03-06T08:26:05.320Z,20.17
2023-03-06T08:27:17.470Z,20.15
2023-03-06T08:28:30.531Z,20.18
2023-03-06T08:29:32.825Z,20.19
2023-03-06T08:30:45.524Z,20.18
2023-03-06T08:31:57.663Z,20.18
2023-03-06T08:33:20.546Z,20.17
2023-03-06T08:34:13.465Z,20.18
2023-03-06T08:35:26.585Z,20.18
2023-03-06T08:36:38.891Z,20.19
2023-03-06T08:37:52.044Z,20.17
2023-03-06T08:38:54.477Z,20.19
2023-03-06T08:40:07.552Z,20.18
2023-03-06T08:41:20.390Z,20.21
2023-03-06T08:42:24.034Z,20.22
2023-03-06T08:43:45.900Z,20.21
2023-03-06T08:44:49.062Z,20.24
2023-03-06T08:46:01.411Z,20.24
2023-03-06T08:47:44.057Z,20.24
2023-03-06T08:48:16.813Z,20.25
2023-03-06T08:49:29.145Z,20.28
2023-03-06T08:50:42.068Z,20.31
2023-03-06T08:51:44.462Z,20.31
2023-03-06T08:52:57.545Z,20.35
2023-03-06T08:54:09.826Z,20.35
2023-03-06T08:55:15.020Z,20.35
2023-03-06T08:56:27.485Z,20.35
2023-03-06T08:57:40.535Z,20.39
2023-03-06T08:58:42.939Z,20.37
2023-03-06T08:59:56.098Z,20.35
2023-03-06T09:01:08.391Z,20.41
2023-03-06T09:02:21.565Z,20.38
2023-03-06T09:03:23.993Z,20.42
2023-03-06T09:04:37.041Z,20.42
2023-03-06T09:05:49.329Z,20.42
2023-03-06T09:07:22.047Z,20.41
2023-03-06T09:08:04.655Z,20.42
2023-03-06T09:09:16.993Z,20.44
2023-03-06T09:10:30.086Z,20.45
2023-03-06T09:11:32.570Z,20.48
2023-03-06T09:12:50.877Z,20.46
2023-03-06T09:13:54.468Z,20.51
2023-03-06T09:15:07.549Z,20.48
2023-03-06T09:16:19.818Z,20.51
2023-03-06T09:17:23.100Z,20.51
2023-03-06T09:18:35.569Z,20.54
2023-03-06T09:19:48.620Z,20.51
2023-03-06T09:21:00.925Z,20.51
2023-03-06T09:22:04.087Z,20.52
2023-03-06T09:23:16.416Z,20.52
2023-03-06T09:24:29.563Z,20.52
2023-03-06T09:25:31.991Z,20.55
2023-03-06T09:26:46.852Z,20.54
2023-03-06T09:28:11.000Z,20.54
2023-03-06T09:29:05.555Z,20.55
2023-03-06T09:30:37.384Z,20.55
2023-03-06T09:31:30.581Z,20.54
2023-03-06T09:32:32.957Z,20.58
2023-03-06T09:33:46.096Z,20.57
2023-03-06T09:34:58.422Z,20.58
2023-03-06T09:36:11.583Z,20.57
2023-03-06T09:37:16.268Z,20.59
2023-03-06T09:38:29.605Z,20.58
2023-03-06T09:39:31.976Z,20.58
2023-03-06T09:40:45.078Z,20.59
2023-03-06T09:43:12.908Z,20.59
2023-03-06T09:44:15.270Z,20.59
2023-03-06T09:45:28.549Z,20.59
2023-03-06T09:46:31.054Z,20.61
2023-03-06T09:47:44.558Z,20.59
2023-03-06T09:49:06.751Z,20.61
2023-03-06T09:50:10.090Z,20.59
2023-03-06T09:51:12.464Z,20.61
2023-03-06T09:52:25.666Z,20.61
2023-03-06T09:53:37.946Z,20.61
2023-03-06T09:54:41.075Z,20.61
2023-03-06T09:55:53.440Z,20.64
2023-03-06T09:57:06.651Z,20.62
2023-03-06T09:58:18.925Z,20.61
2023-03-06T09:59:22.098Z,20.64
2023-03-06T10:00:34.370Z,20.65
2023-03-06T10:01:47.546Z,20.66
2023-03-06T10:02:50.038Z,20.64
2023-03-06T10:04:03.085Z,20.65
2023-03-06T10:05:15.580Z,20.66
2023-03-06T10:06:28.586Z,20.68
2023-03-06T10:07:30.936Z,20.69
2023-03-06T10:08:44.104Z,20.69
2023-03-06T10:09:56.440Z,20.69
2023-03-06T10:10:59.577Z,20.69
2023-03-06T10:12:11.954Z,20.7
2023-03-06T10:13:25.074Z,20.73
2023-03-06T10:14:37.357Z,20.73
2023-03-06T10:15:40.594Z,20.73
2023-03-06T10:16:52.989Z,20.75
2023-03-06T10:18:06.081Z,20.78
2023-03-06T10:19:08.480Z,20.78
2023-03-06T10:20:21.714Z,20.79
2023-03-06T10:21:34.054Z,20.8
2023-03-06T10:23:00.033Z,20.8
2023-03-06T10:23:53.421Z,20.82
2023-03-06T10:25:06.564Z,20.83
2023-03-06T10:26:08.938Z,20.89
2023-03-06T10:27:22.092Z,20.89
2023-03-06T10:28:53.824Z,20.9
2023-03-06T10:30:00.101Z,20.93
2023-03-06T10:31:04.669Z,20.96
2023-03-06T10:31:58.140Z,20.99
2023-03-06T10:33:11.088Z,21.04
2023-03-06T10:34:23.299Z,21.06
2023-03-06T10:35:36.588Z,21.09
2023-03-06T10:36:39.075Z,21.1
2023-03-06T10:37:52.095Z,21.11
2023-03-06T10:39:04.312Z,21.11
2023-03-06T10:40:08.507Z,21.11
2023-03-06T10:41:20.872Z,21.14
2023-03-06T10:42:34.106Z,21.17
2023-03-06T10:43:36.720Z,21.16
2023-03-06T10:44:59.598Z,21.2
2023-03-06T10:46:21.616Z,21.23
2023-03-06T10:47:15.095Z,21.26
2023-03-06T10:48:17.498Z,21.26
2023-03-06T10:49:30.602Z,21.29
2023-03-06T10:50:42.821Z,21.31
2023-03-06T10:51:46.065Z,21.31
2023-03-06T10:52:58.280Z,21.33
2023-03-06T10:54:11.078Z,21.33
2023-03-06T10:55:23.316Z,21.31
2023-03-06T10:56:26.601Z,21.31
2023-03-06T10:57:38.923Z,21.31
2023-03-06T10:58:52.084Z,21.33
2023-03-06T11:00:04.304Z,21.31
2023-03-06T11:01:07.578Z,21.27
2023-03-06T11:02:19.923Z,21.27
2023-03-06T11:03:33.096Z,21.26
2023-03-06T11:04:35.514Z,21.26
2023-03-06T11:05:48.613Z,21.24
2023-03-06T11:07:00.841Z,21.24
2023-03-06T11:08:14.110Z,21.26
2023-03-06T11:09:16.514Z,21.3
2023-03-06T11:10:39.586Z,21.31
2023-03-06T11:11:41.945Z,21.34
2023-03-06T11:12:45.093Z,21.39
2023-03-06T11:14:07.234Z,21.43
2023-03-06T11:15:10.121Z,21.47
2023-03-06T11:16:25.460Z,21.54
2023-03-06T11:17:29.128Z,21.55
2023-03-06T11:18:41.382Z,21.6
2023-03-06T11:19:44.590Z,21.64
2023-03-06T11:21:16.352Z,21.7
2023-03-06T11:22:09.602Z,21.71
2023-03-06T11:23:21.738Z,21.75
2023-03-06T11:24:24.602Z,21.8
2023-03-06T11:25:36.818Z,21.84
2023-03-06T11:26:51.000Z,21.85
2023-03-06T11:27:53.494Z,21.87
2023-03-06T11:29:06.678Z,21.88
2023-03-06T11:30:18.955Z,21.91
2023-03-06T11:31:32.196Z,21.92
2023-03-06T11:32:54.081Z,21.94
2023-03-06T11:33:47.604Z,21.97
2023-03-06T11:34:59.837Z,21.99
2023-03-06T11:36:03.094Z,22.03
2023-03-06T11:37:16.278Z,22.08
2023-03-06T11:38:29.611Z,22.12
2023-03-06T11:39:31.892Z,22.11
2023-03-06T11:40:45.067Z,22.16
2023-03-06T11:42:06.571Z,22.19
2023-03-06T11:43:29.119Z,22.21
2023-03-06T11:44:11.612Z,22.23
2023-03-06T11:45:23.763Z,22.29
2023-03-06T11:46:36.627Z,22.32
2023-03-06T11:47:49.872Z,22.33
2023-03-06T11:48:53.116Z,22.35
2023-03-06T11:50:05.275Z,22.36
2023-03-06T11:51:18.168Z,22.38
2023-03-06T11:52:20.461Z,22.39
2023-03-06T11:53:33.639Z,22.39
2023-03-06T11:54:45.799Z,22.39
2023-03-06T11:55:58.583Z,22.43
2023-03-06T11:57:00.864Z,22.43
2023-03-06T11:58:14.130Z,22.46
2023-03-06T11:59:26.212Z,22.49
2023-03-06T12:00:29.140Z,22.5
2023-03-06T12:01:41.313Z,22.5
2023-03-06T12:02:54.116Z,22.57
2023-03-06T12:04:06.252Z,22.54
2023-03-06T12:05:09.224Z,22.57
2023-03-06T12:06:21.400Z,22.6
2023-03-06T12:07:34.162Z,22.62
2023-03-06T12:08:46.323Z,22.64
2023-03-06T12:09:49.154Z,22.69
2023-03-06T12:11:01.283Z,22.69
2023-03-06T12:12:14.113Z,22.72
2023-03-06T12:13:16.342Z,22.76
2023-03-06T12:14:29.424Z,22.73
2023-03-06T12:16:01.127Z,22.79
2023-03-06T12:16:54.156Z,22.81
2023-03-06T12:17:56.426Z,22.83
2023-03-06T12:19:09.132Z,22.83
2023-03-06T12:20:21.243Z,22.87
2023-03-06T12:21:34.111Z,22.91
2023-03-06T12:22:36.361Z,22.91
2023-03-06T12:23:49.761Z,22.96
2023-03-06T12:25:21.452Z,22.99
2023-03-06T12:26:04.624Z,23.04
2023-03-06T12:27:16.874Z,23.07
2023-03-06T12:28:29.609Z,23.1
2023-03-06T12:29:41.750Z,23.13
2023-03-06T12:30:44.650Z,23.14
2023-03-06T12:31:56.803Z,23.13
2023-03-06T12:33:09.623Z,23.15
2023-03-06T12:34:11.872Z,23.13
2023-03-06T12:35:24.640Z,23.13
2023-03-06T12:36:36.995Z,23.13
2023-03-06T12:37:51.139Z,23.14
2023-03-06T12:38:53.302Z,23.13
2023-03-06T12:40:06.209Z,23.17
2023-03-06T12:41:18.484Z,23.17
2023-03-06T12:42:23.707Z,23.18
2023-03-06T12:43:36.496Z,23.17
2023-03-06T12:44:40.623Z,23.21
2023-03-06T12:45:52.780Z,23.24
2023-03-06T12:47:05.646Z,23.23
2023-03-06T12:48:07.904Z,23.23
2023-03-06T12:49:31.443Z,23.24
2023-03-06T12:50:34.388Z,23.25
2023-03-06T12:51:47.242Z,23.25
2023-03-06T12:52:49.406Z,23.24
2023-03-06T12:54:03.587Z,23.24
2023-03-06T12:55:17.063Z,23.25
2023-03-06T12:56:20.145Z,23.27
2023-03-06T12:57:32.261Z,23.28
2023-03-06T12:58:45.147Z,23.3
2023-03-06T12:59:47.402Z,23.3
2023-03-06T13:01:04.274Z,23.31
2023-03-06T13:02:06.942Z,23.35
2023-03-06T13:03:19.627Z,23.37
2023-03-06T13:04:31.718Z,23.39
2023-03-06T13:05:44.691Z,23.42
2023-03-06T13:06:50.846Z,23.41
2023-03-06T13:08:05.484Z,23.45
2023-03-06T13:09:07.714Z,23.47
2023-03-06T13:10:20.640Z,23.48
2023-03-06T13:11:22.906Z,23.51
2023-03-06T13:12:36.210Z,23.49
2023-03-06T13:13:48.293Z,23.49
2023-03-06T13:15:01.217Z,23.51
2023-03-06T13:16:03.487Z,23.54
2023-03-06T13:17:16.142Z,23.56
2023-03-06T13:18:28.192Z,23.56
2023-03-06T13:19:41.157Z,23.58
2023-03-06T13:20:43.301Z,23.58
2023-03-06T13:21:56.142Z,23.58
2023-03-06T13:23:08.192Z,23.64
2023-03-06T13:24:11.142Z,23.62
2023-03-06T13:25:23.260Z,23.65
2023-03-06T13:26:37.254Z,23.64
2023-03-06T13:27:39.841Z,23.68
2023-03-06T13:28:52.665Z,23.68
2023-03-06T13:30:04.638Z,23.66
2023-03-06T13:31:27.073Z,23.69
2023-03-06T13:32:20.085Z,23.71
2023-03-06T13:33:33.192Z,23.71
2023-03-06T13:34:45.255Z,23.71
2023-03-06T13:35:58.241Z,23.68
2023-03-06T13:37:00.572Z,23.71
2023-03-06T13:38:13.180Z,23.69
2023-03-06T13:39:25.250Z,23.69
2023-03-06T13:40:28.134Z,23.69
2023-03-06T13:41:40.305Z,23.68
2023-03-06T13:42:53.153Z,23.71
2023-03-06T13:43:55.286Z,23.69
2023-03-06T13:45:08.163Z,23.71
2023-03-06T13:46:20.245Z,23.72
2023-03-06T13:47:46.128Z,23.75
2023-03-06T13:48:45.296Z,23.79
2023-03-06T13:49:48.081Z,23.81
2023-03-06T13:51:00.746Z,23.81
2023-03-06T13:52:12.766Z,23.85
2023-03-06T13:53:15.632Z,23.86
2023-03-06T13:54:27.667Z,23.9
2023-03-06T13:55:40.669Z,23.92
2023-03-06T13:56:42.967Z,23.92
2023-03-06T13:57:55.672Z,23.92
2023-03-06T13:59:07.699Z,23.98
2023-03-06T14:00:20.637Z,23.95
2023-03-06T14:01:22.940Z,24.02
2023-03-06T14:02:37.705Z,24.02
2023-03-06T14:05:02.792Z,24.06
2023-03-06T14:06:06.785Z,24.09
2023-03-06T14:07:19.392Z,24.09
2023-03-06T14:08:21.564Z,24.1
2023-03-06T14:09:34.428Z,24.11
2023-03-06T14:10:46.358Z,24.11
2023-03-06T14:11:49.396Z,24.14
2023-03-06T14:13:01.399Z,24.14
2023-03-06T14:14:13.925Z,24.17
2023-03-06T14:15:27.418Z,24.14
2023-03-06T14:16:37.569Z,24.16
2023-03-06T14:17:39.864Z,24.17
2023-03-06T14:18:52.388Z,24.17
2023-03-06T14:20:04.364Z,24.16
2023-03-06T14:22:33.716Z,24.19
2023-03-06T14:23:27.376Z,24.2
2023-03-06T14:24:40.361Z,24.17
2023-03-06T14:25:52.360Z,24.17
2023-03-06T14:26:55.454Z,24.17
2023-03-06T14:28:14.032Z,24.16
2023-03-06T14:29:17.354Z,24.17
2023-03-06T14:30:38.990Z,24.16
2023-03-06T14:31:41.862Z,24.11
2023-03-06T14:32:43.972Z,24.13
2023-03-06T14:33:56.882Z,24.11
2023-03-06T14:35:08.920Z,24.11
2023-03-06T14:36:21.882Z,24.09
2023-03-06T14:37:24.526Z,24.07
2023-03-06T14:38:37.850Z,24.06
2023-03-06T14:39:49.902Z,24.07
2023-03-06T14:40:52.915Z,24.05
2023-03-06T14:42:05.078Z,24.05
2023-03-06T14:43:17.878Z,24.02
2023-03-06T14:44:20.016Z,24.02
2023-03-06T14:45:32.887Z,24.02
2023-03-06T14:46:44.998Z,23.98
2023-03-06T14:47:59.377Z,24.02
2023-03-06T14:49:01.654Z,24.0
2023-03-06T14:50:14.360Z,23.98
2023-03-06T14:51:26.486Z,23.99
2023-03-06T14:52:29.379Z,23.95
2023-03-06T14:53:41.367Z,23.98
2023-03-06T14:54:54.459Z,23.98
2023-03-06T14:55:56.731Z,23.95
2023-03-06T14:57:09.399Z,23.92
2023-03-06T14:58:21.493Z,23.92
2023-03-06T14:59:34.394Z,23.93
2023-03-06T15:00:37.863Z,23.89
2023-03-06T15:01:51.460Z,23.89
2023-03-06T15:03:03.704Z,23.86
2023-03-06T15:04:06.937Z,23.85
2023-03-06T15:05:18.997Z,23.82
2023-03-06T15:06:31.885Z,23.79
2023-03-06T15:07:33.985Z,23.76
2023-03-06T15:08:46.924Z,23.74
2023-03-06T15:09:58.986Z,23.71
2023-03-06T15:11:11.881Z,23.65